createdAt,value
2023-03-06T00:00:05.208Z,39.67
2023-03-06T00:00:56.556Z,38.40
2023-03-06T00:01:28.449Z,40.70
2023-03-06T00:02:00.145Z,39.73
2023-03-06T00:02:32.187Z,40.40
2023-03-06T00:03:04.659Z,41.13
2023-03-06T00:03:36.445Z,40.10
2023-03-06T00:04:08.619Z,41.53
2023-03-06T00:04:40.604Z,40.10
2023-03-06T00:05:13.951Z,40.70
2023-03-06T00:05:46.031Z,40.43
2023-03-06T00:06:17.793Z,40.87
2023-03-06T00:06:49.550Z,41.70
2023-03-06T00:07:21.266Z,42.57
2023-03-06T00:07:52.985Z,41.07
2023-03-06T00:08:26.980Z,39.50
2023-03-06T00:08:58.655Z,39.80
2023-03-06T00:09:30.343Z,39.97
2023-03-06T00:10:02.052Z,40.43
2023-03-06T00:10:34.797Z,41.00
2023-03-06T00:11:06.452Z,40.90
2023-03-06T00:11:38.244Z,39.53
2023-03-06T00:12:10.222Z,41.07
2023-03-06T00:12:42.765Z,40.90
2023-03-06T00:13:19.261Z,40.27
2023-03-06T00:13:51.004Z,39.13
2023-03-06T00:14:22.685Z,40.60
2023-03-06T00:14:54.396Z,41.80
2023-03-06T00:15:27.314Z,39.40
2023-03-06T00:16:01.069Z,40.87
2023-03-06T00:16:32.913Z,41.00
2023-03-06T00:17:04.718Z,39.77
2023-03-06T00:17:37.243Z,40.87
2023-03-06T00:18:09.317Z,39.73
2023-03-06T00:18:41.761Z,38.73
2023-03-06T00:19:13.527Z,38.53
2023-03-06T00:19:45.211Z,39.53
2023-03-06T00:20:17.771Z,40.87
2023-03-06T00:20:49.463Z,42.60
2023-03-06T00:21:21.183Z,42.47
2023-03-06T00:21:52.899Z,44.87
2023-03-06T00:22:24.636Z,44.03
2023-03-06T00:22:57.054Z,44.20
2023-03-06T00:23:29.184Z,44.93
2023-03-06T00:24:00.854Z,45.37
2023-03-06T00:24:32.603Z,46.07
2023-03-06T00:25:05.233Z,47.40
2023-03-06T00:25:41.738Z,48.07
2023-03-06T00:26:13.428Z,46.07
2023-03-06T00:27:03.449Z,47.03
2023-03-06T00:27:35.132Z,45.37
2023-03-06T00:28:06.833Z,46.17
2023-03-06T00:28:38.822Z,47.63
2023-03-06T00:29:10.824Z,45.87
2023-03-06T00:29:42.614Z,45.10
2023-03-06T00:30:20.383Z,49.03
2023-03-06T00:30:52.171Z,48.63
2023-03-06T00:31:23.880Z,48.13
2023-03-06T00:31:55.578Z,47.53
2023-03-06T00:32:28.598Z,50.27
2023-03-06T00:33:00.365Z,50.27
2023-03-06T00:33:32.055Z,50.17
2023-03-06T00:34:04.277Z,49.93
2023-03-06T00:34:35.977Z,50.93
2023-03-06T00:35:08.089Z,51.07
2023-03-06T00:35:40.843Z,51.07
2023-03-06T00:36:12.585Z,53.53
2023-03-06T00:36:44.298Z,52.83
2023-03-06T00:37:16.293Z,53.20
2023-03-06T00:37:48.536Z,54.37
2023-03-06T00:38:20.306Z,54.53
2023-03-06T00:38:52.004Z,52.70
2023-03-06T00:39:23.787Z,54.23
2023-03-06T00:39:55.467Z,55.27
2023-03-06T00:40:27.313Z,55.53
2023-03-06T00:40:59.148Z,54.63
2023-03-06T00:41:30.807Z,54.97
2023-03-06T00:42:02.528Z,56.33
2023-03-06T00:42:34.197Z,58.57
2023-03-06T00:43:05.954Z,58.23
2023-03-06T00:43:37.733Z,55.83
2023-03-06T00:44:09.387Z,56.70
2023-03-06T00:44:41.302Z,58.43
2023-03-06T00:45:13.335Z,60.60
2023-03-06T00:45:45.092Z,60.33
2023-03-06T00:46:16.838Z,57.60
2023-03-06T00:46:48.493Z,55.73
2023-03-06T00:47:20.237Z,57.27
2023-03-06T00:47:51.917Z,59.53
2023-03-06T00:48:23.641Z,59.57
2023-03-06T00:48:55.366Z,57.50
2023-03-06T00:49:27.328Z,55.03
2023-03-06T00:50:01.521Z,54.13
2023-03-06T00:50:34.117Z,55.63
2023-03-06T00:51:07.068Z,56.93
2023-03-06T00:51:38.768Z,56.90
2023-03-06T00:52:10.741Z,53.87
2023-03-06T00:52:42.600Z,55.47
2023-03-06T00:53:14.293Z,55.63
2023-03-06T00:53:46.048Z,53.43
2023-03-06T00:54:17.750Z,54.67
2023-03-06T00:54:49.510Z,55.23
2023-03-06T00:55:21.201Z,53.97
2023-03-06T00:55:52.975Z,53.97
2023-03-06T00:56:25.245Z,57.23
2023-03-06T00:56:56.991Z,53.00
2023-03-06T00:57:28.645Z,52.17
2023-03-06T00:58:00.335Z,52.20
2023-03-06T00:58:32.029Z,52.20
2023-03-06T00:59:03.721Z,48.60
2023-03-06T00:59:35.853Z,47.27
2023-03-06T01:00:09.128Z,45.63
2023-03-06T01:00:41.105Z,43.10
2023-03-06T01:01:13.925Z,43.03
2023-03-06T01:01:45.805Z,42.67
2023-03-06T01:02:17.540Z,43.33
2023-03-06T01:02:49.315Z,42.37
2023-03-06T01:03:22.082Z,43.60
2023-03-06T01:03:53.741Z,44.23
2023-03-06T01:04:26.019Z,43.30
2023-03-06T01:04:58.041Z,42.53
2023-03-06T01:05:31.078Z,42.73
2023-03-06T01:06:02.789Z,43.47
2023-03-06T01:06:34.473Z,44.63
2023-03-06T01:07:06.292Z,43.37
2023-03-06T01:07:38.020Z,43.97
2023-03-06T01:08:10.039Z,42.63
2023-03-06T01:08:41.724Z,41.57
2023-03-06T01:09:13.745Z,42.57
2023-03-06T01:09:45.413Z,42.57
2023-03-06T01:10:17.180Z,41.80
2023-03-06T01:10:48.933Z,39.80
2023-03-06T01:11:20.828Z,39.33
2023-03-06T01:11:52.602Z,41.60
2023-03-06T01:12:24.513Z,41.30
2023-03-06T01:12:56.309Z,41.40
2023-03-06T01:13:28.109Z,40.90
2023-03-06T01:13:59.895Z,38.33
2023-03-06T01:14:32.073Z,38.77
2023-03-06T01:15:05.210Z,38.03
2023-03-06T01:15:37.390Z,38.47
2023-03-06T01:16:14.937Z,36.53
2023-03-06T01:16:47.791Z,38.97
2023-03-06T01:17:19.473Z,35.10
2023-03-06T01:17:54.865Z,36.70
2023-03-06T01:18:26.602Z,36.37
2023-03-06T01:18:58.765Z,36.23
2023-03-06T01:19:30.740Z,36.77
2023-03-06T01:20:02.675Z,35.27
2023-03-06T01:20:34.620Z,34.00
2023-03-06T01:21:07.097Z,33.73
2023-03-06T01:21:38.989Z,34.80
2023-03-06T01:22:10.676Z,36.57
2023-03-06T01:22:42.677Z,34.40
2023-03-06T01:23:14.366Z,35.50
2023-03-06T01:23:46.200Z,34.83
2023-03-06T01:24:17.857Z,33.73
2023-03-06T01:24:49.530Z,32.87
2023-03-06T01:25:21.475Z,33.23
2023-03-06T01:25:53.179Z,31.27
2023-03-06T01:26:24.880Z,30.73
2023-03-06T01:26:56.633Z,32.23
2023-03-06T01:27:28.380Z,32.07
2023-03-06T01:28:00.118Z,31.00
2023-03-06T01:28:34.026Z,33.37
2023-03-06T01:29:06.447Z,33.23
2023-03-06T01:29:38.149Z,32.63
2023-03-06T01:30:10.251Z,31.60
2023-03-06T01:30:42.233Z,30.87
2023-03-06T01:31:14.025Z,31.47
2023-03-06T01:31:45.780Z,31.70
2023-03-06T01:32:17.628Z,32.57
2023-03-06T01:32:49.379Z,32.50
2023-03-06T01:33:21.276Z,34.00
2023-03-06T01:33:53.408Z,33.23
2023-03-06T01:34:25.145Z,33.43
2023-03-06T01:34:56.915Z,33.13
2023-03-06T01:35:28.687Z,33.73
2023-03-06T01:36:00.599Z,34.20
2023-03-06T01:36:32.318Z,34.63
2023-03-06T01:37:04.017Z,34.17
2023-03-06T01:37:37.342Z,34.93
2023-03-06T01:38:11.576Z,33.97
2023-03-06T01:38:43.570Z,35.10
2023-03-06T01:39:15.288Z,35.67
2023-03-06T01:39:47.069Z,35.07
2023-03-06T01:40:18.803Z,36.83
2023-03-06T01:40:50.500Z,36.20
2023-03-06T01:41:22.245Z,34.30
2023-03-06T01:41:54.289Z,33.77
2023-03-06T01:42:26.018Z,35.17
2023-03-06T01:42:57.674Z,36.17
2023-03-06T01:43:34.717Z,35.30
2023-03-06T01:44:06.440Z,36.57
2023-03-06T01:45:02.231Z,35.63
2023-03-06T01:45:33.891Z,34.80
2023-03-06T01:46:24.254Z,35.63
2023-03-06T01:46:55.967Z,35.53
2023-03-06T01:47:27.920Z,34.57
2023-03-06T01:47:59.585Z,34.83
2023-03-06T01:48:31.365Z,35.03
2023-03-06T01:49:12.165Z,35.23
2023-03-06T01:49:43.865Z,34.50
2023-03-06T01:50:15.958Z,33.77
2023-03-06T01:50:48.835Z,35.00
2023-03-06T01:51:21.705Z,34.83
2023-03-06T01:52:03.607Z,33.50
2023-03-06T01:52:43.369Z,33.47
2023-03-06T01:53:15.744Z,32.87
2023-03-06T01:53:50.528Z,32.33
2023-03-06T01:54:29.535Z,31.97
2023-03-06T01:55:10.739Z,32.43
2023-03-06T01:55:42.918Z,31.43
2023-03-06T01:56:15.819Z,30.23
2023-03-06T01:56:50.486Z,30.60
2023-03-06T01:57:26.804Z,30.50
2023-03-06T01:58:03.736Z,30.47
2023-03-06T01:58:36.403Z,29.63
2023-03-06T01:59:08.325Z,29.33
2023-03-06T01:59:42.618Z,28.93
2023-03-06T02:00:18.507Z,29.83
2023-03-06T02:00:50.294Z,30.77
2023-03-06T02:01:22.158Z,31.17
2023-03-06T02:01:55.306Z,30.40
2023-03-06T02:02:27.194Z,30.67
2023-03-06T02:03:10.132Z,30.80
2023-03-06T02:03:43.487Z,29.30
2023-03-06T02:04:17.236Z,29.03
2023-03-06T02:04:49.030Z,28.17
2023-03-06T02:05:21.042Z,28.57
2023-03-06T02:05:53.204Z,29.37
2023-03-06T02:06:25.198Z,28.23
2023-03-06T02:07:00.526Z,28.40
2023-03-06T02:07:33.665Z,28.83
2023-03-06T02:08:06.881Z,27.83
2023-03-06T02:08:39.743Z,27.73
2023-03-06T02:09:14.163Z,28.57
2023-03-06T02:09:46.330Z,27.10
2023-03-06T02:10:19.572Z,26.87
2023-03-06T02:11:17.658Z,26.70
2023-03-06T02:11:49.437Z,27.40
2023-03-06T02:12:23.019Z,27.57
2023-03-06T02:12:54.914Z,26.73
2023-03-06T02:13:26.776Z,27.80
2023-03-06T02:13:58.637Z,27.83
2023-03-06T02:14:30.539Z,26.27
2023-03-06T02:15:02.443Z,26.43
2023-03-06T02:15:34.172Z,27.10
2023-03-06T02:16:07.248Z,26.13
2023-03-06T02:16:41.931Z,25.67
2023-03-06T02:17:17.040Z,26.03
2023-03-06T02:17:51.420Z,25.67
2023-03-06T02:18:23.144Z,25.57
2023-03-06T02:18:55.547Z,26.57
2023-03-06T02:19:51.531Z,27.10
2023-03-06T02:20:33.633Z,27.33
2023-03-06T02:21:09.509Z,25.60
2023-03-06T02:21:41.268Z,26.87
2023-03-06T02:22:12.987Z,25.73
2023-03-06T02:23:03.157Z,24.37
2023-03-06T02:23:58.513Z,25.80
2023-03-06T02:25:03.420Z,25.40
2023-03-06T02:25:42.053Z,24.23
2023-03-06T02:26:15.020Z,25.87
2023-03-06T02:26:48.405Z,25.63
2023-03-06T02:27:21.247Z,24.93
2023-03-06T02:27:52.923Z,24.87
2023-03-06T02:28:25.157Z,25.37
2023-03-06T02:28:59.278Z,25.17
2023-03-06T02:29:31.813Z,25.03
2023-03-06T02:30:09.513Z,25.03
2023-03-06T02:30:45.417Z,25.57
2023-03-06T02:31:27.375Z,24.93
2023-03-06T02:31:59.245Z,25.53
2023-03-06T02:32:31.054Z,25.60
2023-03-06T02:33:04.357Z,25.30
2023-03-06T02:33:36.101Z,24.67
2023-03-06T02:34:17.058Z,25.70
2023-03-06T02:34:55.990Z,24.90
2023-03-06T02:35:31.405Z,24.30
2023-03-06T02:36:06.091Z,24.10
2023-03-06T02:36:43.346Z,24.27
2023-03-06T02:37:15.253Z,24.10
2023-03-06T02:37:47.084Z,24.90
2023-03-06T02:38:22.544Z,24.10
2023-03-06T02:38:54.585Z,24.67
2023-03-06T02:39:31.818Z,25.30
2023-03-06T02:40:09.459Z,24.37
2023-03-06T02:40:44.785Z,25.20
2023-03-06T02:41:16.742Z,26.63
2023-03-06T02:41:48.594Z,25.70
2023-03-06T02:42:24.348Z,24.77
2023-03-06T02:42:58.505Z,24.00
2023-03-06T02:43:35.036Z,24.63
2023-03-06T02:44:06.748Z,26.23
2023-03-06T02:44:38.663Z,25.90
2023-03-06T02:45:14.224Z,26.07
2023-03-06T02:45:48.718Z,26.33
2023-03-06T02:46:20.734Z,25.67
2023-03-06T02:46:52.466Z,25.43
2023-03-06T02:47:24.154Z,26.03
2023-03-06T02:47:55.834Z,25.90
2023-03-06T02:48:27.657Z,27.47
2023-03-06T02:48:59.418Z,25.67
2023-03-06T02:49:31.102Z,24.60
2023-03-06T02:50:02.846Z,23.73
2023-03-06T02:50:34.819Z,24.83
2023-03-06T02:51:06.898Z,25.47
2023-03-06T02:51:38.587Z,25.40
2023-03-06T02:52:10.299Z,25.87
2023-03-06T02:52:41.957Z,26.03
2023-03-06T02:53:16.773Z,25.10
2023-03-06T02:53:48.454Z,25.30
2023-03-06T02:54:20.158Z,26.17
2023-03-06T02:54:51.892Z,25.60
2023-03-06T02:55:23.970Z,26.40
2023-03-06T02:55:55.685Z,25.53
2023-03-06T02:56:28.512Z,25.90
2023-03-06T02:57:00.203Z,26.63
2023-03-06T02:57:31.861Z,25.63
2023-03-06T02:58:04.073Z,23.80
2023-03-06T02:58:35.774Z,25.03
2023-03-06T02:59:07.520Z,25.43
2023-03-06T02:59:39.274Z,26.80
2023-03-06T03:00:11.819Z,26.20
2023-03-06T03:00:43.546Z,26.13
2023-03-06T03:01:15.412Z,25.27
2023-03-06T03:01:47.878Z,26.03
2023-03-06T03:02:19.694Z,25.93
2023-03-06T03:02:51.635Z,24.83
2023-03-06T03:03:23.373Z,24.13
2023-03-06T03:03:57.120Z,25.63
2023-03-06T03:04:28.839Z,26.73
2023-03-06T03:05:00.558Z,25.37
2023-03-06T03:05:32.689Z,25.73
2023-03-06T03:06:06.008Z,25.70
2023-03-06T03:06:37.754Z,24.23
2023-03-06T03:07:09.455Z,24.83
2023-03-06T03:07:41.362Z,25.10
2023-03-06T03:08:13.288Z,25.67
2023-03-06T03:08:45.015Z,26.13
2023-03-06T03:09:16.698Z,25.97
2023-03-06T03:09:48.464Z,25.47
2023-03-06T03:10:20.305Z,26.37
2023-03-06T03:10:52.034Z,27.13
2023-03-06T03:11:23.706Z,25.93
2023-03-06T03:11:55.818Z,26.07
2023-03-06T03:12:28.816Z,26.50
2023-03-06T03:13:00.773Z,26.77
2023-03-06T03:13:32.826Z,25.10
2023-03-06T03:14:04.562Z,24.83
2023-03-06T03:14:36.360Z,25.63
2023-03-06T03:15:10.121Z,25.20
2023-03-06T03:15:41.976Z,25.53
2023-03-06T03:16:18.310Z,25.70
2023-03-06T03:16:50.062Z,27.13
2023-03-06T03:17:22.885Z,25.97
2023-03-06T03:17:54.597Z,27.17
2023-03-06T03:18:26.528Z,27.17
2023-03-06T03:18:58.212Z,27.83
2023-03-06T03:19:30.267Z,28.93
2023-03-06T03:20:01.972Z,27.80
2023-03-06T03:20:33.769Z,26.30
2023-03-06T03:21:10.468Z,26.03
2023-03-06T03:21:42.261Z,26.67
2023-03-06T03:22:13.991Z,28.63
2023-03-06T03:22:49.988Z,27.43
2023-03-06T03:23:22.220Z,26.37
2023-03-06T03:23:53.911Z,26.83
2023-03-06T03:24:25.867Z,28.10
2023-03-06T03:24:57.672Z,26.70
2023-03-06T03:25:29.533Z,25.77
2023-03-06T03:26:13.909Z,25.37
2023-03-06T03:26:45.660Z,27.27
2023-03-06T03:27:17.401Z,27.10
2023-03-06T03:27:49.099Z,27.53
2023-03-06T03:28:20.849Z,26.83
2023-03-06T03:28:52.531Z,26.90
2023-03-06T03:29:24.835Z,27.27
2023-03-06T03:30:00.552Z,27.07
2023-03-06T03:30:32.287Z,27.00
2023-03-06T03:31:09.431Z,26.93
2023-03-06T03:31:41.104Z,26.73
2023-03-06T03:32:12.825Z,27.40
2023-03-06T03:32:44.576Z,27.00
2023-03-06T03:33:16.305Z,26.83
2023-03-06T03:33:47.991Z,26.03
2023-03-06T03:34:19.648Z,25.63
2023-03-06T03:34:51.673Z,25.83
2023-03-06T03:35:23.409Z,25.50
2023-03-06T03:35:59.521Z,27.40
2023-03-06T03:36:31.294Z,28.37
2023-03-06T03:37:03.027Z,29.17
2023-03-06T03:37:34.897Z,27.60
2023-03-06T03:38:06.574Z,27.87
2023-03-06T03:38:38.274Z,27.87
2023-03-06T03:39:10.311Z,28.03
2023-03-06T03:39:42.106Z,26.37
2023-03-06T03:40:13.932Z,27.60
2023-03-06T03:40:45.680Z,27.07
2023-03-06T03:41:17.376Z,27.10
2023-03-06T03:41:49.148Z,27.03
2023-03-06T03:42:20.952Z,27.80
2023-03-06T03:42:52.796Z,28.50
2023-03-06T03:43:24.486Z,28.73
2023-03-06T03:43:56.164Z,27.83
2023-03-06T03:44:27.855Z,27.17
2023-03-06T03:44:59.583Z,26.63
2023-03-06T03:45:31.296Z,26.13
2023-03-06T03:46:03.120Z,25.60
2023-03-06T03:46:34.943Z,26.43
2023-03-06T03:47:06.860Z,25.57
2023-03-06T03:47:38.792Z,26.83
2023-03-06T03:48:10.661Z,26.43
2023-03-06T03:48:42.481Z,26.73
2023-03-06T03:49:15.131Z,25.13
2023-03-06T03:49:46.840Z,25.87
2023-03-06T03:50:18.960Z,26.87
2023-03-06T03:50:50.700Z,26.53
2023-03-06T03:51:22.704Z,26.50
2023-03-06T03:51:54.381Z,27.43
2023-03-06T03:52:26.317Z,26.60
2023-03-06T03:52:58.018Z,25.47
2023-03-06T03:53:29.717Z,25.03
2023-03-06T03:54:01.513Z,27.70
2023-03-06T03:54:33.847Z,27.80
2023-03-06T03:55:06.147Z,26.27
2023-03-06T03:55:37.932Z,26.93
2023-03-06T03:56:10.662Z,26.33
2023-03-06T03:56:42.453Z,26.47
2023-03-06T03:57:14.242Z,25.57
2023-03-06T03:57:45.983Z,25.53
2023-03-06T03:58:17.670Z,27.60
2023-03-06T03:58:49.425Z,28.87
2023-03-06T03:59:21.226Z,28.00
2023-03-06T03:59:53.174Z,28.53
2023-03-06T04:00:24.950Z,28.67
2023-03-06T04:00:56.705Z,28.07
2023-03-06T04:01:28.498Z,29.80
2023-03-06T04:02:00.286Z,29.93
2023-03-06T04:02:31.963Z,28.73
2023-03-06T04:03:03.788Z,29.33
2023-03-06T04:03:36.023Z,29.57
2023-03-06T04:04:08.382Z,29.60
2023-03-06T04:04:40.145Z,30.03
2023-03-06T04:05:14.768Z,30.93
2023-03-06T04:05:46.666Z,29.57
2023-03-06T04:06:18.510Z,29.47
2023-03-06T04:06:50.203Z,30.20
2023-03-06T04:07:21.951Z,30.13
2023-03-06T04:07:53.675Z,29.83
2023-03-06T04:08:26.762Z,29.17
2023-03-06T04:08:59.116Z,28.97
2023-03-06T04:09:30.820Z,28.43
2023-03-06T04:10:02.501Z,28.50
2023-03-06T04:10:34.489Z,28.93
2023-03-06T04:11:06.766Z,29.03
2023-03-06T04:11:38.885Z,29.07
2023-03-06T04:12:10.689Z,28.33
2023-03-06T04:12:42.607Z,27.83
2023-03-06T04:13:14.452Z,29.73
2023-03-06T04:13:46.364Z,29.93
2023-03-06T04:14:18.069Z,28.80
2023-03-06T04:14:50.040Z,27.67
2023-03-06T04:15:21.729Z,28.37
2023-03-06T04:15:54.617Z,27.70
2023-03-06T04:16:26.426Z,28.17
2023-03-06T04:16:58.195Z,28.97
2023-03-06T04:17:29.944Z,27.40
2023-03-06T04:18:01.747Z,27.93
2023-03-06T04:18:33.504Z,27.20
2023-03-06T04:19:05.224Z,27.40
2023-03-06T04:19:36.952Z,26.83
2023-03-06T04:20:09.425Z,26.97
2023-03-06T04:20:41.324Z,25.87
2023-03-06T04:21:13.372Z,26.73
2023-03-06T04:21:45.169Z,26.33
2023-03-06T04:22:16.820Z,27.47
2023-03-06T04:22:48.744Z,26.40
2023-03-06T04:23:20.893Z,26.30
2023-03-06T04:23:52.558Z,26.20
2023-03-06T04:24:25.128Z,26.53
2023-03-06T04:24:56.814Z,27.17
2023-03-06T04:25:29.575Z,26.40
2023-03-06T04:26:01.333Z,25.57
2023-03-06T04:26:33.062Z,25.17
2023-03-06T04:27:05.109Z,26.33
2023-03-06T04:27:38.172Z,25.00
2023-03-06T04:28:10.249Z,23.50
2023-03-06T04:28:41.972Z,25.43
2023-03-06T04:29:13.642Z,25.87
2023-03-06T04:29:45.364Z,26.53
2023-03-06T04:30:17.121Z,25.73
2023-03-06T04:30:48.910Z,24.60
2023-03-06T04:31:20.699Z,24.20
2023-03-06T04:31:52.438Z,24.50
2023-03-06T04:32:24.421Z,23.20
2023-03-06T04:32:56.093Z,25.17
2023-03-06T04:33:27.921Z,25.93
2023-03-06T04:33:59.717Z,25.30
2023-03-06T04:34:31.591Z,25.57
2023-03-06T04:35:03.339Z,26.60
2023-03-06T04:35:35.748Z,26.63
2023-03-06T04:36:07.792Z,27.07
2023-03-06T04:36:41.545Z,27.33
2023-03-06T04:37:25.092Z,27.43
2023-03-06T04:37:57.269Z,26.60
2023-03-06T04:38:28.964Z,27.10
2023-03-06T04:39:02.096Z,26.73
2023-03-06T04:39:33.800Z,27.23
2023-03-06T04:40:06.022Z,27.17
2023-03-06T04:40:38.247Z,28.40
2023-03-06T04:41:10.066Z,27.50
2023-03-06T04:41:42.704Z,27.80
2023-03-06T04:42:14.734Z,28.07
2023-03-06T04:42:46.423Z,27.50
2023-03-06T04:43:18.242Z,29.07
2023-03-06T04:43:50.359Z,29.23
2023-03-06T04:44:22.059Z,28.80
2023-03-06T04:44:53.785Z,28.73
2023-03-06T04:45:27.178Z,30.03
2023-03-06T04:45:59.008Z,29.27
2023-03-06T04:46:30.702Z,28.80
2023-03-06T04:47:02.390Z,27.97
2023-03-06T04:47:34.085Z,29.43
2023-03-06T04:48:06.083Z,29.17
2023-03-06T04:48:38.016Z,27.93
2023-03-06T04:49:09.990Z,27.90
2023-03-06T04:49:43.188Z,27.17
2023-03-06T04:50:16.673Z,28.40
2023-03-06T04:50:48.425Z,28.03
2023-03-06T04:51:20.164Z,39.70
2023-03-06T04:51:51.842Z,42.30
2023-03-06T04:52:23.557Z,33.83
2023-03-06T04:52:55.294Z,30.73
2023-03-06T04:53:26.996Z,29.53
2023-03-06T04:53:58.776Z,29.80
2023-03-06T04:54:30.529Z,30.13
2023-03-06T04:55:08.536Z,28.10
2023-03-06T04:55:40.232Z,27.20
2023-03-06T04:56:11.881Z,27.00
2023-03-06T04:56:43.557Z,27.33
2023-03-06T04:57:16.113Z,27.50
2023-03-06T04:57:48.103Z,26.47
2023-03-06T04:58:20.882Z,25.50
2023-03-06T04:58:52.538Z,25.90
2023-03-06T04:59:24.214Z,25.93
2023-03-06T04:59:55.898Z,27.30
2023-03-06T05:00:30.686Z,27.83
2023-03-06T05:01:03.103Z,26.80
2023-03-06T05:01:34.847Z,26.47
2023-03-06T05:02:06.605Z,25.57
2023-03-06T05:02:38.305Z,30.77
2023-03-06T05:03:12.598Z,89.20
2023-03-06T05:03:44.283Z,108.53
2023-03-06T05:04:15.997Z,81.93
2023-03-06T05:04:47.676Z,40.87
2023-03-06T05:05:19.443Z,77.03
2023-03-06T05:05:51.116Z,89.10
2023-03-06T05:06:22.823Z,93.53
2023-03-06T05:06:54.499Z,154.37
2023-03-06T05:07:26.260Z,97.47
2023-03-06T05:07:58.006Z,176.60
2023-03-06T05:08:29.787Z,60.17
2023-03-06T05:09:01.500Z,44.47
2023-03-06T05:09:34.570Z,87.20
2023-03-06T05:10:07.158Z,80.63
2023-03-06T05:10:38.871Z,44.27
2023-03-06T05:11:10.591Z,41.70
2023-03-06T05:11:42.290Z,39.73
2023-03-06T05:12:24.406Z,32.40
2023-03-06T05:12:56.090Z,28.03
2023-03-06T05:13:28.356Z,28.73
2023-03-06T05:14:00.045Z,28.13
2023-03-06T05:14:33.100Z,27.17
2023-03-06T05:15:07.527Z,25.27
2023-03-06T05:15:42.164Z,26.77
2023-03-06T05:16:14.036Z,26.97
2023-03-06T05:16:45.920Z,25.17
2023-03-06T05:17:17.826Z,25.80
2023-03-06T05:17:49.682Z,24.63
2023-03-06T05:18:21.945Z,26.40
2023-03-06T05:18:53.685Z,26.87
2023-03-06T05:19:25.445Z,26.43
2023-03-06T05:19:57.143Z,27.27
2023-03-06T05:20:28.884Z,26.40
2023-03-06T05:21:00.877Z,25.07
2023-03-06T05:21:32.567Z,27.00
2023-03-06T05:22:04.259Z,27.57
2023-03-06T05:22:36.159Z,95.10
2023-03-06T05:23:07.861Z,314.23
2023-03-06T05:23:39.746Z,183.40
2023-03-06T05:24:11.545Z,97.53
2023-03-06T05:24:43.278Z,131.63
2023-03-06T05:25:16.364Z,243.20
2023-03-06T05:25:48.053Z,214.90
2023-03-06T05:26:20.054Z,220.27
2023-03-06T05:26:51.864Z,270.27
2023-03-06T05:27:23.628Z,219.83
2023-03-06T05:27:55.373Z,135.27
2023-03-06T05:28:28.703Z,43.40
2023-03-06T05:29:00.519Z,52.30
2023-03-06T05:29:32.209Z,34.83
2023-03-06T05:30:04.469Z,31.07
2023-03-06T05:30:36.283Z,29.67
2023-03-06T05:31:08.510Z,29.43
2023-03-06T05:31:40.249Z,27.10
2023-03-06T05:32:12.107Z,27.77
2023-03-06T05:32:44.192Z,29.63
2023-03-06T05:33:16.047Z,31.00
2023-03-06T05:33:47.742Z,31.53
2023-03-06T05:34:19.439Z,31.60
2023-03-06T05:34:51.154Z,33.63
2023-03-06T05:35:23.657Z,35.83
2023-03-06T05:35:55.537Z,37.40
2023-03-06T05:36:27.231Z,37.70
2023-03-06T05:37:01.813Z,40.50
2023-03-06T05:37:33.706Z,40.50
2023-03-06T05:38:05.439Z,39.13
2023-03-06T05:38:37.203Z,39.93
2023-03-06T05:39:09.597Z,39.13
2023-03-06T05:39:41.452Z,37.23
2023-03-06T05:40:14.512Z,35.80
2023-03-06T05:40:46.363Z,34.33
2023-03-06T05:41:18.148Z,34.07
2023-03-06T05:41:49.846Z,34.53
2023-03-06T05:42:21.637Z,33.23
2023-03-06T05:42:53.403Z,33.00
2023-03-06T05:43:25.110Z,32.63
2023-03-06T05:43:57.054Z,32.20
2023-03-06T05:44:36.018Z,32.70
2023-03-06T05:45:08.336Z,32.10
2023-03-06T05:45:40.814Z,31.70
2023-03-06T05:46:12.668Z,31.87
2023-03-06T05:46:44.449Z,31.93
2023-03-06T05:47:16.204Z,29.47
2023-03-06T05:47:47.965Z,30.27
2023-03-06T05:48:19.654Z,29.77
2023-03-06T05:48:54.125Z,29.73
2023-03-06T05:49:26.692Z,31.43
2023-03-06T05:49:58.713Z,36.30
2023-03-06T05:50:30.398Z,33.40
2023-03-06T05:51:03.535Z,32.37
2023-03-06T05:51:35.265Z,32.63
2023-03-06T05:52:08.161Z,32.40
2023-03-06T05:52:40.166Z,33.00
2023-03-06T05:53:11.966Z,33.30
2023-03-06T05:53:43.754Z,33.47
2023-03-06T05:54:15.508Z,34.03
2023-03-06T05:54:51.256Z,35.23
2023-03-06T05:55:24.475Z,35.73
2023-03-06T05:56:01.443Z,34.03
2023-03-06T05:56:33.890Z,35.17
2023-03-06T05:57:06.594Z,34.67
2023-03-06T05:57:38.418Z,34.47
2023-03-06T05:58:10.264Z,34.20
2023-03-06T05:58:42.083Z,32.70
2023-03-06T05:59:13.764Z,33.00
2023-03-06T05:59:46.487Z,33.40
2023-03-06T06:00:18.914Z,32.70
2023-03-06T06:00:52.142Z,33.03
2023-03-06T06:01:25.450Z,34.00
2023-03-06T06:01:57.865Z,33.13
2023-03-06T06:02:29.668Z,33.23
2023-03-06T06:03:02.243Z,35.10
2023-03-06T06:03:33.936Z,33.93
2023-03-06T06:04:05.660Z,34.00
2023-03-06T06:04:37.342Z,32.87
2023-03-06T06:05:12.904Z,33.27
2023-03-06T06:05:44.892Z,33.20
2023-03-06T06:06:16.686Z,31.57
2023-03-06T06:06:52.731Z,30.60
2023-03-06T06:07:24.419Z,32.07
2023-03-06T06:07:56.143Z,32.67
2023-03-06T06:08:27.884Z,33.47
2023-03-06T06:09:01.110Z,32.93
2023-03-06T06:09:32.884Z,31.93
2023-03-06T06:10:06.780Z,31.37
2023-03-06T06:10:39.581Z,29.47
2023-03-06T06:11:13.116Z,29.90
2023-03-06T06:11:45.931Z,30.13
2023-03-06T06:12:21.741Z,31.27
2023-03-06T06:12:53.414Z,32.03
2023-03-06T06:13:25.113Z,30.83
2023-03-06T06:13:56.869Z,30.67
2023-03-06T06:14:29.400Z,30.57
2023-03-06T06:15:01.170Z,30.30
2023-03-06T06:15:33.868Z,30.73
2023-03-06T06:16:22.689Z,31.23
2023-03-06T06:16:54.903Z,31.47
2023-03-06T06:17:26.648Z,31.10
2023-03-06T06:17:58.518Z,30.83
2023-03-06T06:18:31.251Z,30.77
2023-03-06T06:19:03.178Z,32.30
2023-03-06T06:19:35.247Z,32.47
2023-03-06T06:20:07.654Z,31.43
2023-03-06T06:20:39.621Z,30.47
2023-03-06T06:21:13.462Z,30.63
2023-03-06T06:21:59.025Z,35.13
2023-03-06T06:22:33.834Z,32.17
2023-03-06T06:23:06.531Z,33.33
2023-03-06T06:23:38.449Z,31.73
2023-03-06T06:24:10.285Z,31.13
2023-03-06T06:24:42.290Z,31.07
2023-03-06T06:25:14.840Z,31.40
2023-03-06T06:25:46.680Z,31.63
2023-03-06T06:26:18.359Z,32.90
2023-03-06T06:26:52.080Z,31.27
2023-03-06T06:27:23.774Z,31.13
2023-03-06T06:27:56.683Z,32.97
2023-03-06T06:28:29.726Z,31.30
2023-03-06T06:29:03.438Z,31.13
2023-03-06T06:29:35.634Z,32.43
2023-03-06T06:30:10.823Z,33.07
2023-03-06T06:30:43.082Z,33.87
2023-03-06T06:31:15.166Z,32.73
2023-03-06T06:31:54.151Z,34.13
2023-03-06T06:32:27.402Z,32.63
2023-03-06T06:33:00.028Z,32.27
2023-03-06T06:33:32.363Z,33.17
2023-03-06T06:34:09.371Z,34.43
2023-03-06T06:34:41.058Z,33.03
2023-03-06T06:35:12.825Z,32.87
2023-03-06T06:35:44.526Z,32.30
2023-03-06T06:36:18.527Z,32.93
2023-03-06T06:36:53.529Z,33.70
2023-03-06T06:37:26.160Z,33.33
2023-03-06T06:37:57.904Z,33.03
2023-03-06T06:38:29.596Z,33.53
2023-03-06T06:39:01.635Z,36.17
2023-03-06T06:39:33.371Z,38.53
2023-03-06T06:40:05.987Z,37.43
2023-03-06T06:40:37.645Z,34.93
2023-03-06T06:41:38.777Z,34.30
2023-03-06T06:42:28.156Z,35.53
2023-03-06T06:42:56.579Z,35.27
2023-03-06T06:43:28.418Z,32.93
2023-03-06T06:44:00.957Z,33.73
2023-03-06T06:44:32.634Z,36.97
2023-03-06T06:45:05.432Z,33.60
2023-03-06T06:45:37.677Z,33.10
2023-03-06T06:46:38.816Z,33.93
2023-03-06T06:47:24.014Z,32.83
2023-03-06T06:47:52.682Z,32.57
2023-03-06T06:48:24.626Z,32.20
2023-03-06T06:48:56.302Z,32.67
2023-03-06T06:49:28.214Z,32.60
2023-03-06T06:50:00.071Z,31.87
2023-03-06T06:50:32.027Z,33.33
2023-03-06T06:51:04.510Z,33.43
2023-03-06T06:51:37.644Z,32.47
2023-03-06T06:52:10.403Z,32.07
2023-03-06T06:52:42.280Z,33.10
2023-03-06T06:53:14.409Z,32.50
2023-03-06T06:53:46.169Z,31.03
2023-03-06T06:54:18.803Z,31.10
2023-03-06T06:54:50.907Z,31.57
2023-03-06T06:55:25.458Z,31.53
2023-03-06T06:55:59.429Z,31.97
2023-03-06T06:56:31.225Z,32.57
2023-03-06T06:57:02.956Z,31.43
2023-03-06T06:57:34.712Z,31.60
2023-03-06T06:58:06.424Z,30.57
2023-03-06T06:58:38.074Z,30.80
2023-03-06T06:59:16.723Z,31.47
2023-03-06T06:59:50.198Z,31.93
2023-03-06T07:00:27.337Z,30.70
2023-03-06T07:01:14.508Z,30.93
2023-03-06T07:01:47.652Z,31.13
2023-03-06T07:02:19.542Z,31.20
2023-03-06T07:02:51.516Z,30.70
2023-03-06T07:03:23.818Z,30.60
2023-03-06T07:03:56.836Z,31.50